This is the latest recevied weather packets stored in our database for station/object YS1AHL-28. If no packets are shown the sender has not sent any weather packets the latest 1 day(s).
| Time | Temp. | Humidity | Pressure | Rain* | Wind** | Luminosity | Snow |
|---|---|---|---|---|---|---|---|
| 1778031423 | 13.33° C | 64% | 1007 hPa | 0 mm | - | - | - |
| 1778030823 | 12.78° C | 61% | 1005 hPa | 0 mm | - | - | - |
| 1778030762 | 12.78° C | 61% | 1005 hPa | 0 mm | - | - | - |
| 1778030222 | 12.22° C | 58% | 1005 hPa | 0 mm | - | - | - |
| 1778030162 | 12.22° C | 58% | 1005 hPa | 0 mm | - | - | - |
| 1778029622 | 12.22° C | 58% | 1005 hPa | 0 mm | - | - | - |
| 1778029561 | 12.22° C | 58% | 1005 hPa | 0 mm | - | - | - |
| 1778029021 | 12.22° C | 57% | 1006 hPa | 0 mm | - | - | - |
| 1778028961 | 12.22° C | 57% | 1006 hPa | 0 mm | - | - | - |
| 1778028360 | 12.22° C | 57% | 1006 hPa | 0 mm | - | - | - |
| 1778027820 | 12.22° C | 58% | 1005 hPa | 0 mm | - | - | - |
| 1778027219 | 12.22° C | 58% | 1003 hPa | 0 mm | - | - | - |
| 1778027159 | 12.22° C | 58% | 1003 hPa | 0 mm | - | - | - |
| 1778026558 | 12.78° C | 58% | 1003 hPa | 0 mm | - | - | - |
| 1778023555 | 12.78° C | 61% | 1003 hPa | 0 mm | - | - | - |
| 1778021753 | 10.56° C | 61% | 1004 hPa | 0 mm | - | - | - |
| 1778020552 | 11.67° C | 61% | 1003 hPa | 0 mm | - | - | - |
| 1778019351 | 12.22° C | 61% | 1002 hPa | 0 mm | - | - | - |
| 1778018210 | 12.78° C | 61% | 1003 hPa | 0 mm | - | - | - |
| 1778018150 | 12.78° C | 61% | 1003 hPa | 0 mm | - | - | - |
| 1778016408 | 13.89° C | 61% | 1001 hPa | 0 mm | - | - | - |
| 1778015807 | 14.44° C | 61% | 1001 hPa | 0 mm | - | - | - |
| 1778015747 | 14.44° C | 61% | 1001 hPa | 0 mm | - | - | - |
| 1778014545 | 20° C | 71% | 1002 hPa | 0 mm | - | - | - |
| 1778014005 | 20° C | 71% | 1001 hPa | 0 mm | - | - | - |
* Rain latest hour (hover to see other rain measurements)
** Current wind speed in m/s (hover to see current wind gust speed)